createdAt,value
2023-03-22T00:01:36.769Z,2.28
2023-03-22T00:04:03.544Z,2.45
2023-03-22T00:06:30.215Z,1.95
2023-03-22T00:08:56.917Z,2.63
2023-03-22T00:11:27.182Z,2.67
2023-03-22T00:13:54.732Z,2.40
2023-03-22T00:16:22.027Z,2.08
2023-03-22T00:18:48.764Z,2.35
2023-03-22T00:21:16.665Z,1.90
2023-03-22T00:23:44.124Z,2.20
2023-03-22T00:26:12.353Z,1.98
2023-03-22T00:28:39.530Z,2.13
2023-03-22T00:31:06.823Z,2.25
2023-03-22T00:33:33.719Z,2.10
2023-03-22T00:36:11.161Z,2.30
2023-03-22T00:38:42.884Z,2.00
2023-03-22T00:41:11.532Z,2.60
2023-03-22T00:43:38.722Z,1.98
2023-03-22T00:46:06.147Z,2.33
2023-03-22T00:48:33.336Z,2.17
2023-03-22T00:51:00.170Z,2.22
2023-03-22T00:53:28.998Z,2.10
2023-03-22T00:55:57.318Z,2.30
2023-03-22T00:58:24.068Z,2.05
2023-03-22T01:00:51.098Z,2.05
2023-03-22T01:03:17.794Z,2.13
2023-03-22T01:05:49.493Z,2.33
2023-03-22T01:08:16.763Z,2.00
2023-03-22T01:10:44.460Z,2.50
2023-03-22T01:13:12.461Z,2.35
2023-03-22T01:15:39.308Z,2.25
2023-03-22T01:18:07.497Z,1.88
2023-03-22T01:20:34.508Z,2.15
2023-03-22T01:23:01.234Z,2.33
2023-03-22T01:25:28.105Z,3.42
2023-03-22T01:27:54.712Z,2.60
2023-03-22T01:30:21.347Z,3.10
2023-03-22T01:32:47.994Z,2.65
2023-03-22T01:35:14.655Z,2.10
2023-03-22T01:37:41.558Z,2.20
2023-03-22T01:40:10.074Z,2.75
2023-03-22T01:42:36.981Z,2.22
2023-03-22T01:45:16.579Z,2.50
2023-03-22T01:47:52.094Z,2.40
2023-03-22T01:50:19.833Z,2.22
2023-03-22T01:52:47.448Z,2.10
2023-03-22T01:55:14.330Z,2.10
2023-03-22T01:57:42.490Z,2.47
2023-03-22T02:00:15.584Z,2.20
2023-03-22T02:02:48.350Z,2.15
2023-03-22T02:05:16.013Z,2.40
2023-03-22T02:07:43.345Z,2.63
2023-03-22T02:10:16.121Z,2.13
2023-03-22T02:12:57.559Z,2.20
2023-03-22T02:15:55.975Z,2.38
2023-03-22T02:18:32.677Z,1.95
2023-03-22T02:21:28.790Z,2.03
2023-03-22T02:24:19.120Z,2.70
2023-03-22T02:29:53.241Z,1.98
2023-03-22T02:32:53.701Z,2.20
2023-03-22T02:38:11.322Z,2.87
2023-03-22T02:41:09.155Z,2.00
2023-03-22T02:44:08.874Z,2.10
2023-03-22T02:47:01.257Z,2.10
2023-03-22T02:49:53.787Z,1.65
2023-03-22T02:52:46.860Z,2.05
2023-03-22T02:55:39.454Z,2.17
2023-03-22T02:58:17.986Z,1.80
2023-03-22T03:00:50.978Z,2.20
2023-03-22T03:03:19.360Z,2.08
2023-03-22T03:05:50.976Z,1.75
2023-03-22T03:08:19.752Z,1.67
2023-03-22T03:10:47.420Z,2.28
2023-03-22T03:13:16.268Z,2.42
2023-03-22T03:15:48.801Z,1.92
2023-03-22T03:18:40.662Z,2.10
2023-03-22T03:21:42.513Z,2.10
2023-03-22T03:24:35.224Z,2.08
2023-03-22T03:27:27.382Z,1.98
2023-03-22T03:30:08.263Z,1.88
2023-03-22T03:32:52.588Z,1.80
2023-03-22T03:35:27.991Z,2.13
2023-03-22T03:38:01.359Z,2.40
2023-03-22T03:40:31.241Z,2.28
2023-03-22T03:43:01.789Z,2.13
2023-03-22T03:45:29.639Z,1.83
2023-03-22T03:47:59.298Z,2.17
2023-03-22T03:50:27.061Z,2.08
2023-03-22T03:52:54.940Z,2.30
2023-03-22T03:55:22.979Z,1.63
2023-03-22T03:57:49.644Z,2.83
2023-03-22T04:00:17.239Z,2.38
2023-03-22T04:02:44.779Z,2.40
2023-03-22T04:05:13.388Z,2.00
2023-03-22T04:07:40.354Z,2.15
2023-03-22T04:10:07.914Z,2.25
2023-03-22T04:12:34.688Z,2.05
2023-03-22T04:15:01.496Z,2.10
2023-03-22T04:17:29.350Z,2.75
2023-03-22T04:19:56.598Z,2.20
2023-03-22T04:22:23.903Z,1.77
2023-03-22T04:24:50.525Z,2.40
2023-03-22T04:27:18.153Z,2.35
2023-03-22T04:29:52.215Z,2.10
2023-03-22T04:32:19.204Z,2.25
2023-03-22T04:34:46.493Z,2.10
2023-03-22T04:37:14.494Z,2.00
2023-03-22T04:39:41.729Z,2.75
2023-03-22T04:42:08.982Z,1.75
2023-03-22T04:44:36.005Z,1.73
2023-03-22T04:47:02.810Z,1.95
2023-03-22T04:49:29.442Z,2.08
2023-03-22T04:51:56.303Z,1.90
2023-03-22T04:54:23.782Z,1.60
2023-03-22T04:56:50.532Z,1.73
2023-03-22T04:59:20.170Z,1.70
2023-03-22T05:01:51.412Z,1.70
2023-03-22T05:04:19.133Z,1.77
2023-03-22T05:06:47.028Z,1.80
2023-03-22T05:09:14.351Z,1.90
2023-03-22T05:11:41.696Z,1.70
2023-03-22T05:14:09.300Z,1.77
2023-03-22T05:16:36.191Z,2.17
2023-03-22T05:19:03.007Z,2.00
2023-03-22T05:21:36.814Z,2.33
2023-03-22T05:24:03.620Z,2.58
2023-03-22T05:26:30.393Z,2.05
2023-03-22T05:28:57.078Z,1.90
2023-03-22T05:31:23.795Z,2.15
2023-03-22T05:33:53.368Z,2.20
2023-03-22T05:36:21.459Z,2.05
2023-03-22T05:38:48.168Z,1.98
2023-03-22T05:41:15.312Z,1.85
2023-03-22T05:43:42.299Z,2.35
2023-03-22T05:46:10.948Z,2.08
2023-03-22T05:48:39.131Z,3.03
2023-03-22T05:51:07.647Z,2.00
2023-03-22T05:53:34.704Z,1.83
2023-03-22T05:56:01.881Z,2.00
2023-03-22T05:58:30.780Z,2.03
2023-03-22T06:01:01.019Z,2.15
2023-03-22T06:03:28.400Z,1.85
2023-03-22T06:05:55.167Z,2.03
2023-03-22T06:08:26.063Z,1.92
2023-03-22T06:10:53.926Z,2.35
2023-03-22T06:13:21.398Z,1.80
2023-03-22T06:15:48.086Z,1.95
2023-03-22T06:18:14.670Z,2.30
2023-03-22T06:20:41.925Z,1.88
2023-03-22T06:23:08.779Z,2.83
2023-03-22T06:25:35.729Z,3.13
2023-03-22T06:28:02.874Z,2.45
2023-03-22T06:30:29.646Z,2.20
2023-03-22T06:33:00.476Z,2.28
2023-03-22T06:35:27.791Z,1.80
2023-03-22T06:37:54.558Z,2.30
2023-03-22T06:40:21.238Z,1.50
2023-03-22T06:42:48.274Z,1.73
2023-03-22T06:45:16.447Z,1.00
2023-03-22T06:47:44.185Z,1.20
2023-03-22T06:50:11.154Z,1.10
2023-03-22T06:52:37.864Z,1.10
2023-03-22T06:55:04.864Z,1.00
2023-03-22T06:57:31.521Z,0.95
2023-03-22T06:59:58.159Z,0.90
2023-03-22T07:02:25.090Z,0.90
2023-03-22T07:04:51.768Z,1.00
2023-03-22T07:07:18.495Z,0.80
2023-03-22T07:09:45.307Z,0.82
2023-03-22T07:12:11.969Z,0.90
2023-03-22T07:14:39.057Z,0.85
2023-03-22T07:17:05.770Z,0.73
2023-03-22T07:19:32.498Z,0.80
2023-03-22T07:21:59.120Z,0.77
2023-03-22T07:24:25.824Z,0.65
2023-03-22T07:26:52.468Z,0.70
2023-03-22T07:29:19.106Z,0.60
2023-03-22T07:31:45.847Z,1.10
2023-03-22T07:34:12.671Z,0.80
2023-03-22T07:36:39.286Z,0.60
2023-03-22T07:39:06.014Z,0.50
2023-03-22T07:41:32.896Z,0.65
2023-03-22T07:44:15.035Z,0.60
2023-03-22T07:46:43.575Z,0.60
2023-03-22T07:49:10.300Z,0.45
2023-03-22T07:51:36.925Z,0.50
2023-03-22T07:54:04.445Z,1.00
2023-03-22T07:56:31.867Z,0.50
2023-03-22T07:58:58.653Z,0.68
2023-03-22T08:01:25.696Z,0.50
2023-03-22T08:03:52.482Z,0.50
2023-03-22T08:06:21.421Z,0.60
2023-03-22T08:08:48.280Z,0.52
2023-03-22T08:11:15.014Z,1.10
2023-03-22T08:13:41.839Z,0.40
2023-03-22T08:16:08.666Z,0.80
2023-03-22T08:18:35.468Z,0.50
2023-03-22T08:21:02.111Z,0.85
2023-03-22T08:23:40.911Z,0.50
2023-03-22T08:26:08.752Z,0.47
2023-03-22T08:28:35.537Z,0.60
2023-03-22T08:31:02.345Z,0.55
2023-03-22T08:33:29.043Z,0.50
2023-03-22T08:36:10.140Z,0.40
2023-03-22T08:38:36.768Z,0.60
2023-03-22T08:41:03.534Z,0.60
2023-03-22T08:43:30.244Z,0.50
2023-03-22T08:45:57.478Z,0.75
2023-03-22T08:48:24.878Z,0.70
2023-03-22T08:50:51.667Z,0.60
2023-03-22T08:53:18.298Z,0.70
2023-03-22T08:55:45.065Z,0.60
2023-03-22T08:58:13.345Z,0.73
2023-03-22T09:00:48.627Z,0.68
2023-03-22T09:03:16.171Z,0.40
2023-03-22T09:05:42.945Z,0.70
2023-03-22T09:08:18.138Z,0.40
2023-03-22T09:10:52.007Z,0.57
2023-03-22T09:13:19.196Z,0.68
2023-03-22T09:15:47.244Z,0.60
2023-03-22T09:18:15.241Z,0.60
2023-03-22T09:20:42.699Z,0.73
2023-03-22T09:23:09.725Z,0.60
2023-03-22T09:25:36.639Z,0.82
2023-03-22T09:28:04.175Z,0.50
2023-03-22T09:30:31.186Z,0.63
2023-03-22T09:32:57.821Z,0.50
2023-03-22T09:35:24.554Z,0.77
2023-03-22T09:37:53.398Z,0.60
2023-03-22T09:40:21.819Z,0.50
2023-03-22T09:42:51.289Z,0.70
2023-03-22T09:45:32.133Z,0.60
2023-03-22T09:47:59.764Z,0.60
2023-03-22T09:50:29.936Z,0.60
2023-03-22T09:52:57.051Z,0.63
2023-03-22T09:55:33.353Z,0.40
2023-03-22T09:58:23.047Z,0.70
2023-03-22T10:00:57.277Z,0.85
2023-03-22T10:03:56.888Z,0.63
2023-03-22T10:06:26.876Z,0.67
2023-03-22T10:08:54.309Z,0.60
2023-03-22T10:11:46.382Z,0.63
2023-03-22T10:14:23.424Z,0.80
2023-03-22T10:16:52.889Z,0.70
2023-03-22T10:19:29.822Z,0.68
2023-03-22T10:22:01.415Z,0.65
2023-03-22T10:24:38.182Z,0.60
2023-03-22T10:27:16.860Z,0.80
2023-03-22T10:29:56.929Z,0.95
2023-03-22T10:32:31.927Z,1.23
2023-03-22T10:34:58.669Z,0.60
2023-03-22T10:37:32.829Z,0.65
2023-03-22T10:40:06.154Z,0.60
2023-03-22T10:42:36.626Z,0.60
2023-03-22T10:45:07.927Z,0.70
2023-03-22T10:47:50.229Z,0.80
2023-03-22T10:50:36.528Z,0.80
2023-03-22T10:53:25.845Z,1.25
2023-03-22T10:55:52.829Z,1.00
2023-03-22T10:58:21.541Z,1.20
2023-03-22T11:00:53.601Z,1.08
2023-03-22T11:03:36.368Z,0.77
2023-03-22T11:06:17.363Z,0.90
2023-03-22T11:08:54.358Z,1.00
2023-03-22T11:11:23.785Z,0.90
2023-03-22T11:13:58.964Z,0.80
2023-03-22T11:16:26.197Z,1.05
2023-03-22T11:18:54.258Z,1.10
2023-03-22T11:21:27.945Z,1.00
2023-03-22T11:24:01.470Z,1.15
2023-03-22T11:26:35.674Z,0.95
2023-03-22T11:29:13.107Z,0.90
2023-03-22T11:31:59.862Z,0.88
2023-03-22T11:34:30.707Z,0.90
2023-03-22T11:37:00.831Z,1.10
2023-03-22T11:39:29.167Z,1.38
2023-03-22T11:42:01.780Z,1.20
2023-03-22T11:44:33.039Z,1.17
2023-03-22T11:47:01.966Z,1.20
2023-03-22T11:49:44.929Z,1.10
2023-03-22T11:52:17.415Z,1.23
2023-03-22T11:54:46.059Z,0.70
2023-03-22T11:57:27.760Z,0.70
2023-03-22T12:00:19.820Z,0.70
2023-03-22T12:02:58.317Z,0.93
2023-03-22T12:05:28.410Z,0.93
2023-03-22T12:08:18.703Z,1.05
2023-03-22T12:13:38.528Z,1.10
2023-03-22T12:16:07.869Z,0.80
2023-03-22T12:18:41.386Z,0.70
2023-03-22T12:21:10.245Z,0.70
2023-03-22T12:23:37.164Z,0.70
2023-03-22T12:26:21.556Z,0.60
2023-03-22T12:28:58.634Z,0.80
2023-03-22T12:31:32.539Z,0.80
2023-03-22T12:34:04.527Z,0.50
2023-03-22T12:36:49.153Z,1.08
2023-03-22T12:39:42.956Z,1.17
2023-03-22T12:42:28.192Z,0.88
2023-03-22T12:45:06.830Z,0.50
2023-03-22T12:47:45.870Z,0.85
2023-03-22T12:50:16.937Z,0.52
2023-03-22T12:52:49.675Z,0.95
2023-03-22T12:55:40.386Z,0.60
2023-03-22T12:58:08.740Z,0.63
2023-03-22T13:00:56.284Z,0.68
2023-03-22T13:03:30.034Z,0.70
2023-03-22T13:06:03.919Z,1.00
2023-03-22T13:09:09.180Z,1.13
2023-03-22T13:11:36.405Z,0.75
2023-03-22T13:14:03.090Z,0.98
2023-03-22T13:16:49.490Z,0.73
2023-03-22T13:20:13.631Z,0.75
2023-03-22T13:22:43.573Z,0.70
2023-03-22T13:25:12.374Z,0.65
2023-03-22T13:27:45.048Z,1.02
2023-03-22T13:30:21.632Z,1.48
2023-03-22T13:33:08.861Z,0.70
2023-03-22T13:35:52.768Z,0.80
2023-03-22T13:38:23.714Z,0.93
2023-03-22T13:40:59.449Z,0.70
2023-03-22T13:43:28.993Z,0.70
2023-03-22T13:46:27.360Z,0.90
2023-03-22T13:49:18.055Z,0.98
2023-03-22T13:51:45.329Z,0.73
2023-03-22T13:54:18.628Z,0.90
2023-03-22T13:57:00.190Z,0.80
2023-03-22T13:59:29.847Z,0.82
2023-03-22T14:02:15.605Z,0.75
2023-03-22T14:04:50.127Z,0.55
2023-03-22T14:07:35.322Z,0.70
2023-03-22T14:10:13.928Z,0.77
2023-03-22T14:12:52.451Z,0.90
2023-03-22T14:15:23.520Z,1.00
2023-03-22T14:18:04.073Z,1.00
2023-03-22T14:20:35.463Z,0.98
